createdAt,value
2018-12-11T00:00:38.432Z,2.30
2018-12-11T00:03:10.400Z,2.30
2018-12-11T00:05:42.146Z,2.30
2018-12-11T00:08:12.390Z,2.30
2018-12-11T00:10:41.682Z,2.30
2018-12-11T00:13:11.290Z,2.20
2018-12-11T00:15:41.237Z,2.20
2018-12-11T00:18:11.238Z,2.10
2018-12-11T00:20:40.883Z,2.10
2018-12-11T00:23:10.396Z,2.20
2018-12-11T00:25:39.902Z,2.10
2018-12-11T00:28:09.381Z,2.10
2018-12-11T00:30:38.830Z,2.10
2018-12-11T00:33:08.440Z,2.10
2018-12-11T00:35:38.061Z,2.00
2018-12-11T00:38:07.420Z,2.00
2018-12-11T00:40:37.185Z,2.10
2018-12-11T00:43:06.722Z,2.00
2018-12-11T00:45:36.319Z,2.10
2018-12-11T00:48:06.404Z,2.10
2018-12-11T00:50:35.845Z,2.10
2018-12-11T00:53:05.363Z,2.10
2018-12-11T00:55:34.871Z,2.10
2018-12-11T00:58:08.394Z,2.10
2018-12-11T01:00:37.937Z,2.10
2018-12-11T01:03:07.445Z,2.10
2018-12-11T01:05:36.971Z,2.10
2018-12-11T01:08:07.514Z,2.10
2018-12-11T01:10:44.012Z,2.10
2018-12-11T01:13:13.583Z,2.10
2018-12-11T01:15:43.134Z,2.10
2018-12-11T01:18:12.972Z,2.10
2018-12-11T01:20:43.268Z,2.10
2018-12-11T01:23:13.065Z,2.10
2018-12-11T01:25:42.341Z,2.10
2018-12-11T01:28:13.291Z,2.10
2018-12-11T01:30:42.771Z,2.00
2018-12-11T01:33:12.395Z,2.00
2018-12-11T01:35:41.780Z,1.90
2018-12-11T01:38:11.140Z,2.00
2018-12-11T01:40:41.061Z,1.90
2018-12-11T01:43:10.510Z,1.90
2018-12-11T01:45:39.865Z,1.90
2018-12-11T01:48:09.166Z,1.90
2018-12-11T01:50:38.869Z,1.90
2018-12-11T01:53:08.658Z,1.90
2018-12-11T01:55:38.165Z,1.90
2018-12-11T01:58:07.643Z,1.90
2018-12-11T02:00:37.210Z,2.00
2018-12-11T02:03:06.551Z,2.00
2018-12-11T02:05:36.597Z,2.00
2018-12-11T02:08:06.911Z,2.00
2018-12-11T02:10:36.949Z,1.90
2018-12-11T02:13:06.467Z,1.90
2018-12-11T02:15:35.822Z,1.90
2018-12-11T02:18:05.485Z,1.90
2018-12-11T02:20:37.881Z,1.90
2018-12-11T02:23:07.199Z,1.80
2018-12-11T02:25:36.682Z,1.90
2018-12-11T02:28:06.294Z,1.90
2018-12-11T02:30:35.790Z,1.80
2018-12-11T02:33:05.280Z,1.80
2018-12-11T02:35:34.810Z,1.90
2018-12-11T02:38:04.410Z,1.90
2018-12-11T02:40:33.722Z,1.90
2018-12-11T02:43:03.526Z,1.90
2018-12-11T02:45:32.847Z,1.90
2018-12-11T02:48:02.323Z,1.80
2018-12-11T02:50:31.849Z,1.80
2018-12-11T02:53:01.167Z,1.80
2018-12-11T02:55:30.816Z,1.80
2018-12-11T02:58:00.109Z,1.80
2018-12-11T03:00:29.446Z,1.80
2018-12-11T03:02:58.910Z,1.80
2018-12-11T03:05:28.290Z,1.80
2018-12-11T03:07:58.021Z,1.80
2018-12-11T03:10:27.349Z,1.80
2018-12-11T03:12:56.661Z,1.70
2018-12-11T03:15:26.050Z,1.70
2018-12-11T03:17:55.661Z,1.70
2018-12-11T03:20:25.164Z,1.70
2018-12-11T03:22:55.336Z,1.70
2018-12-11T03:25:25.100Z,1.80
2018-12-11T03:27:54.447Z,1.80
2018-12-11T03:30:24.066Z,1.80
2018-12-11T03:32:53.838Z,1.70
2018-12-11T03:35:23.331Z,1.70
2018-12-11T03:37:52.879Z,1.80
2018-12-11T03:40:22.324Z,1.80
2018-12-11T03:42:51.844Z,1.70
2018-12-11T03:45:22.338Z,1.80
2018-12-11T03:47:52.005Z,1.80
2018-12-11T03:50:21.369Z,1.70
2018-12-11T03:52:50.988Z,1.80
2018-12-11T03:55:21.430Z,1.70
2018-12-11T03:57:50.861Z,1.70
2018-12-11T04:00:20.256Z,1.60
2018-12-11T04:02:49.700Z,1.50
2018-12-11T04:05:19.124Z,1.60
2018-12-11T04:07:48.815Z,1.50
2018-12-11T04:10:18.645Z,1.60
2018-12-11T04:12:48.969Z,1.50
2018-12-11T04:15:18.427Z,1.60
2018-12-11T04:17:47.775Z,1.60
2018-12-11T04:20:17.387Z,1.50
2018-12-11T04:22:46.987Z,1.50
2018-12-11T04:25:16.629Z,1.50
2018-12-11T04:27:46.153Z,1.50
2018-12-11T04:30:15.889Z,1.40
2018-12-11T04:32:45.424Z,1.50
2018-12-11T04:35:14.874Z,1.40
2018-12-11T04:37:44.261Z,1.40
2018-12-11T04:40:14.053Z,1.40
2018-12-11T04:42:44.088Z,1.40
2018-12-11T04:45:14.238Z,1.40
2018-12-11T04:47:43.978Z,1.40
2018-12-11T04:50:14.136Z,1.40
2018-12-11T04:52:43.670Z,1.50
2018-12-11T04:55:14.428Z,1.40
2018-12-11T04:57:43.972Z,1.50
2018-12-11T05:00:13.384Z,1.50
2018-12-11T05:02:43.313Z,1.50
2018-12-11T05:05:12.806Z,1.50
2018-12-11T05:07:42.496Z,1.60
2018-12-11T05:10:11.986Z,1.60
2018-12-11T05:12:41.631Z,1.60
2018-12-11T05:15:11.238Z,1.60
2018-12-11T05:17:41.388Z,1.60
2018-12-11T05:20:11.093Z,1.60
2018-12-11T05:22:41.130Z,1.60
2018-12-11T05:25:10.529Z,1.60
2018-12-11T05:27:40.035Z,1.60
2018-12-11T05:30:09.417Z,1.70
2018-12-11T05:32:38.971Z,1.70
2018-12-11T05:35:08.476Z,1.70
2018-12-11T05:37:38.007Z,1.70
2018-12-11T05:40:07.538Z,1.70
2018-12-11T05:42:37.863Z,1.70
2018-12-11T05:45:07.543Z,1.70
2018-12-11T05:47:37.049Z,1.70
2018-12-11T05:50:06.998Z,1.70
2018-12-11T05:52:36.501Z,1.70
2018-12-11T05:55:06.348Z,1.70
2018-12-11T05:57:35.827Z,1.80
2018-12-11T06:00:07.465Z,1.80
2018-12-11T06:02:37.382Z,1.80
2018-12-11T06:05:07.944Z,1.80
2018-12-11T06:07:37.450Z,1.80
2018-12-11T06:10:08.378Z,1.90
2018-12-11T06:12:37.758Z,1.90
2018-12-11T06:15:07.303Z,1.90
2018-12-11T06:17:36.850Z,1.90
2018-12-11T06:20:06.527Z,1.90
2018-12-11T06:22:36.566Z,1.90
2018-12-11T06:25:06.145Z,1.90
2018-12-11T06:27:35.491Z,1.90
2018-12-11T06:30:05.448Z,1.80
2018-12-11T06:32:34.803Z,1.90
2018-12-11T06:35:04.497Z,1.90
2018-12-11T06:37:34.024Z,1.80
2018-12-11T06:40:03.685Z,1.80
2018-12-11T06:42:33.105Z,1.80
2018-12-11T06:45:03.126Z,1.80
2018-12-11T06:47:32.685Z,1.80
2018-12-11T06:50:02.313Z,1.80
2018-12-11T06:52:32.185Z,1.80
2018-12-11T06:55:01.746Z,1.80
2018-12-11T06:57:31.297Z,1.80
2018-12-11T07:00:01.121Z,1.80
2018-12-11T07:02:31.853Z,1.80
2018-12-11T07:05:01.571Z,1.70
2018-12-11T07:07:31.677Z,1.80
2018-12-11T07:10:01.255Z,1.80
2018-12-11T07:12:30.655Z,1.70
2018-12-11T07:15:07.303Z,1.70
2018-12-11T07:17:36.823Z,1.70
2018-12-11T07:20:07.314Z,1.80
2018-12-11T07:22:36.743Z,1.70
2018-12-11T07:25:06.379Z,1.70
2018-12-11T07:27:35.707Z,1.70
2018-12-11T07:30:06.230Z,1.70
2018-12-11T07:32:35.754Z,1.70
2018-12-11T07:35:05.065Z,1.70
2018-12-11T07:37:34.412Z,1.80
2018-12-11T07:40:03.975Z,1.80
2018-12-11T07:42:33.451Z,1.80
2018-12-11T07:45:03.010Z,1.80
2018-12-11T07:47:32.391Z,1.90
2018-12-11T07:50:01.789Z,2.00
2018-12-11T07:52:31.351Z,2.20
2018-12-11T07:55:00.723Z,2.30
2018-12-11T07:57:30.491Z,2.30
2018-12-11T07:59:59.806Z,2.40
2018-12-11T08:02:29.579Z,2.40
2018-12-11T08:04:59.762Z,2.40
2018-12-11T08:07:30.368Z,2.40
2018-12-11T08:09:59.896Z,2.40
2018-12-11T08:12:29.323Z,2.40
2018-12-11T08:14:58.725Z,2.40
2018-12-11T08:17:28.205Z,2.40
2018-12-11T08:19:57.890Z,2.50
2018-12-11T08:22:27.945Z,2.50
2018-12-11T08:24:57.282Z,2.50
2018-12-11T08:27:27.423Z,2.40
2018-12-11T08:29:57.300Z,2.50
2018-12-11T08:32:26.975Z,2.50
2018-12-11T08:34:57.126Z,2.50
2018-12-11T08:37:26.621Z,2.50
2018-12-11T08:39:56.287Z,2.50
2018-12-11T08:42:25.928Z,2.50
2018-12-11T08:44:55.764Z,2.50
2018-12-11T08:47:25.404Z,2.50
2018-12-11T08:49:54.804Z,2.50
2018-12-11T08:52:24.350Z,2.50
2018-12-11T08:54:54.312Z,2.50
2018-12-11T08:57:23.836Z,2.60
2018-12-11T08:59:53.380Z,2.50
2018-12-11T09:02:22.717Z,2.50
2018-12-11T09:04:52.389Z,2.60
2018-12-11T09:07:22.381Z,2.60
2018-12-11T09:09:52.121Z,2.60
2018-12-11T09:12:21.537Z,2.70
2018-12-11T09:14:51.367Z,2.70
2018-12-11T09:17:20.649Z,2.80
2018-12-11T09:19:49.982Z,2.70
2018-12-11T09:22:19.710Z,2.80
2018-12-11T09:24:49.028Z,2.80
2018-12-11T09:27:18.531Z,2.80
2018-12-11T09:29:47.973Z,2.80
2018-12-11T09:32:17.861Z,2.80
2018-12-11T09:34:47.138Z,2.80
2018-12-11T09:37:16.811Z,2.90
2018-12-11T09:39:46.442Z,2.90
2018-12-11T09:42:16.360Z,2.90
2018-12-11T09:44:45.671Z,3.00
2018-12-11T09:47:15.134Z,3.00
2018-12-11T09:49:44.732Z,3.00
2018-12-11T09:52:14.223Z,3.00
2018-12-11T09:54:44.066Z,3.00
2018-12-11T09:57:13.923Z,3.10
2018-12-11T09:59:43.740Z,3.10
2018-12-11T10:02:13.391Z,3.10
2018-12-11T10:04:43.228Z,3.00
2018-12-11T10:07:13.456Z,3.10
2018-12-11T10:09:43.200Z,3.00
2018-12-11T10:12:13.142Z,3.00
2018-12-11T10:14:42.415Z,3.00
2018-12-11T10:17:12.149Z,2.90
2018-12-11T10:19:41.679Z,3.00
2018-12-11T10:22:11.043Z,3.00
2018-12-11T10:24:40.483Z,3.00
2018-12-11T10:27:10.325Z,3.00
2018-12-11T10:29:39.903Z,3.00
2018-12-11T10:32:09.399Z,3.10
2018-12-11T10:34:38.802Z,3.10
2018-12-11T10:37:08.507Z,3.10
2018-12-11T10:39:38.223Z,3.10
2018-12-11T10:42:07.935Z,3.10
2018-12-11T10:44:37.416Z,3.00
2018-12-11T10:47:06.917Z,3.00
2018-12-11T10:49:36.653Z,3.00
2018-12-11T10:52:06.473Z,3.00
2018-12-11T10:54:36.041Z,3.00
2018-12-11T10:57:05.704Z,3.00
2018-12-11T10:59:35.209Z,3.00
2018-12-11T11:02:42.289Z,3.10
2018-12-11T11:05:12.259Z,3.10
2018-12-11T11:07:43.016Z,3.10
2018-12-11T11:10:12.732Z,3.10
2018-12-11T11:12:42.249Z,3.20
2018-12-11T11:15:11.483Z,3.10
2018-12-11T11:17:40.963Z,3.20
2018-12-11T11:20:10.695Z,3.20
2018-12-11T11:22:40.150Z,3.20
2018-12-11T11:25:09.792Z,3.20
2018-12-11T11:27:40.557Z,3.20
2018-12-11T11:30:10.012Z,3.20
2018-12-11T11:32:39.487Z,3.20
2018-12-11T11:35:08.835Z,3.30
2018-12-11T11:37:38.540Z,3.20
2018-12-11T11:40:08.114Z,3.30
2018-12-11T11:42:37.989Z,3.30
2018-12-11T11:45:08.861Z,3.20
2018-12-11T11:47:40.381Z,3.30
2018-12-11T11:50:12.757Z,3.30
2018-12-11T11:52:42.288Z,3.30
2018-12-11T11:55:12.051Z,3.30
2018-12-11T11:57:41.703Z,3.30
2018-12-11T12:00:14.344Z,3.30
2018-12-11T12:02:45.381Z,3.30
2018-12-11T12:05:14.910Z,3.20
2018-12-11T12:07:44.332Z,3.20
2018-12-11T12:10:16.134Z,3.20
2018-12-11T12:12:45.430Z,3.20
2018-12-11T12:15:14.809Z,3.20
2018-12-11T12:17:44.638Z,3.20
2018-12-11T12:20:14.222Z,3.10
2018-12-11T12:22:44.754Z,3.20
2018-12-11T12:25:14.434Z,3.20
2018-12-11T12:27:44.115Z,3.20
2018-12-11T12:30:13.527Z,3.20
2018-12-11T12:32:43.357Z,3.10
2018-12-11T12:35:13.213Z,3.20
2018-12-11T12:37:43.055Z,3.20
2018-12-11T12:40:12.746Z,3.20
2018-12-11T12:42:42.438Z,3.20
2018-12-11T12:45:12.483Z,3.20
2018-12-11T12:47:41.885Z,3.30
2018-12-11T12:50:11.893Z,3.30
2018-12-11T12:52:42.449Z,3.30
2018-12-11T12:55:12.093Z,3.30
2018-12-11T12:57:41.741Z,3.30
2018-12-11T13:00:11.865Z,3.30
2018-12-11T13:02:41.467Z,3.30
2018-12-11T13:05:11.819Z,3.40
2018-12-11T13:07:41.254Z,3.40
2018-12-11T13:10:10.627Z,3.40
2018-12-11T13:12:40.593Z,3.40
2018-12-11T13:15:10.149Z,3.40
2018-12-11T13:17:39.589Z,3.50
2018-12-11T13:20:09.364Z,3.50
2018-12-11T13:22:38.751Z,3.50
2018-12-11T13:25:08.417Z,3.50
2018-12-11T13:27:37.809Z,3.50
2018-12-11T13:30:07.335Z,3.50
2018-12-11T13:32:36.878Z,3.50
2018-12-11T13:35:06.419Z,3.50
2018-12-11T13:37:35.876Z,3.60
2018-12-11T13:40:05.959Z,3.50
2018-12-11T13:42:35.356Z,3.50
2018-12-11T13:45:05.168Z,3.50
2018-12-11T13:47:34.967Z,3.50
2018-12-11T13:50:04.356Z,3.50
2018-12-11T13:52:33.759Z,3.50
2018-12-11T13:55:03.163Z,3.50
2018-12-11T13:57:32.845Z,3.50
2018-12-11T14:00:02.589Z,3.50
2018-12-11T14:02:32.958Z,3.50
2018-12-11T14:05:02.358Z,3.50
2018-12-11T14:07:32.700Z,3.50
2018-12-11T14:10:02.313Z,3.50
2018-12-11T14:12:34.018Z,3.50
2018-12-11T14:15:03.438Z,3.50
2018-12-11T14:17:33.035Z,3.40
2018-12-11T14:20:08.502Z,3.40
2018-12-11T14:22:38.695Z,3.40
2018-12-11T14:25:08.231Z,3.40
2018-12-11T14:27:37.503Z,3.40
2018-12-11T14:30:11.229Z,3.40
2018-12-11T14:32:40.296Z,3.30
2018-12-11T14:35:10.254Z,3.30
2018-12-11T14:37:39.559Z,3.30
2018-12-11T14:40:09.339Z,3.20
2018-12-11T14:42:38.753Z,3.20
2018-12-11T14:45:08.727Z,3.20
2018-12-11T14:47:38.291Z,3.20
2018-12-11T14:50:09.191Z,3.20
2018-12-11T14:52:38.825Z,3.10
2018-12-11T14:55:08.343Z,3.10
2018-12-11T14:57:38.003Z,3.10
2018-12-11T15:00:09.069Z,3.00
2018-12-11T15:02:39.208Z,3.00
2018-12-11T15:05:08.795Z,3.00
2018-12-11T15:07:39.702Z,2.90
2018-12-11T15:10:11.289Z,2.90
2018-12-11T15:12:40.803Z,2.90
2018-12-11T15:15:11.127Z,2.80
2018-12-11T15:17:40.909Z,2.80
2018-12-11T15:20:10.716Z,2.80
2018-12-11T15:22:40.552Z,2.70
2018-12-11T15:25:09.943Z,2.70
2018-12-11T15:27:39.558Z,2.70
2018-12-11T15:30:09.946Z,2.70
2018-12-11T15:32:39.416Z,2.70
2018-12-11T15:35:09.102Z,2.60
2018-12-11T15:37:38.473Z,2.60
2018-12-11T15:40:07.939Z,2.60
2018-12-11T15:42:39.412Z,2.60
2018-12-11T15:45:09.070Z,2.60
2018-12-11T15:47:38.566Z,2.50
2018-12-11T15:50:08.210Z,2.50
2018-12-11T15:52:37.469Z,2.50
2018-12-11T15:55:06.764Z,2.50
2018-12-11T15:57:36.876Z,2.50
2018-12-11T16:00:08.366Z,2.50
2018-12-11T16:02:39.468Z,2.50
2018-12-11T16:05:09.111Z,2.50
2018-12-11T16:07:38.612Z,2.40
2018-12-11T16:10:08.698Z,2.50
2018-12-11T16:12:37.994Z,2.50
2018-12-11T16:15:07.622Z,2.40
2018-12-11T16:17:37.010Z,2.40
2018-12-11T16:20:06.234Z,2.50
2018-12-11T16:22:35.726Z,2.40
2018-12-11T16:25:05.396Z,2.40
2018-12-11T16:27:35.242Z,2.50
2018-12-11T16:30:06.091Z,2.40
2018-12-11T16:32:35.631Z,2.40
2018-12-11T16:35:05.658Z,2.40
2018-12-11T16:37:35.479Z,2.40
2018-12-11T16:40:05.959Z,2.40
2018-12-11T16:42:35.264Z,2.40
2018-12-11T16:45:04.885Z,2.40
2018-12-11T16:47:34.801Z,2.50
2018-12-11T16:50:04.389Z,2.50
2018-12-11T16:52:33.730Z,2.50
2018-12-11T16:55:03.439Z,2.50
2018-12-11T16:57:32.994Z,2.50
2018-12-11T17:00:02.781Z,2.40
2018-12-11T17:02:33.030Z,2.50
2018-12-11T17:05:03.040Z,2.50
2018-12-11T17:07:32.561Z,2.40
2018-12-11T17:10:02.879Z,2.40
2018-12-11T17:12:32.854Z,2.50
2018-12-11T17:15:03.011Z,2.40
2018-12-11T17:17:33.926Z,2.50
2018-12-11T17:20:03.630Z,2.50
2018-12-11T17:22:34.556Z,2.50
2018-12-11T17:25:04.381Z,2.50
2018-12-11T17:27:34.014Z,2.50
2018-12-11T17:30:04.127Z,2.50
2018-12-11T17:32:34.511Z,2.50
2018-12-11T17:35:04.762Z,2.50
2018-12-11T17:37:34.925Z,2.50
2018-12-11T17:40:04.517Z,2.50
2018-12-11T17:42:34.126Z,2.50
2018-12-11T17:45:04.631Z,2.40
2018-12-11T17:47:34.434Z,2.40
2018-12-11T17:50:05.101Z,2.40
2018-12-11T17:52:34.945Z,2.40
2018-12-11T17:55:04.839Z,2.40
2018-12-11T17:57:34.313Z,2.40
2018-12-11T18:00:04.379Z,2.40
2018-12-11T18:02:37.973Z,2.30
2018-12-11T18:05:08.051Z,2.30
2018-12-11T18:07:38.869Z,2.30
2018-12-11T18:10:08.729Z,2.20
2018-12-11T18:12:39.736Z,2.30
2018-12-11T18:15:09.113Z,2.20
2018-12-11T18:17:38.594Z,2.20
2018-12-11T18:20:09.053Z,2.20
2018-12-11T18:22:38.841Z,2.20
2018-12-11T18:25:08.466Z,2.20
2018-12-11T18:27:37.903Z,2.20
2018-12-11T18:30:08.578Z,2.20
2018-12-11T18:32:38.314Z,2.20
2018-12-11T18:35:09.386Z,2.20
2018-12-11T18:37:39.199Z,2.20
2018-12-11T18:40:10.627Z,2.30
2018-12-11T18:42:40.325Z,2.20
2018-12-11T18:45:10.176Z,2.20
2018-12-11T18:47:40.018Z,2.20
2018-12-11T18:50:09.961Z,2.30
2018-12-11T18:52:39.463Z,2.20
2018-12-11T18:55:09.222Z,2.20
2018-12-11T18:57:38.946Z,2.20
2018-12-11T19:00:10.048Z,2.20
2018-12-11T19:02:41.886Z,2.20
2018-12-11T19:05:11.909Z,2.20
2018-12-11T19:07:41.857Z,2.20
2018-12-11T19:10:13.862Z,2.30
2018-12-11T19:12:43.796Z,2.30
2018-12-11T19:15:14.810Z,2.30
2018-12-11T19:17:44.868Z,2.30
2018-12-11T19:20:14.911Z,2.30
2018-12-11T19:22:44.844Z,2.30
2018-12-11T19:25:19.209Z,2.30
2018-12-11T19:27:49.106Z,2.30
2018-12-11T19:30:18.651Z,2.20
2018-12-11T19:32:50.250Z,2.20
2018-12-11T19:35:22.389Z,2.20
2018-12-11T19:37:54.002Z,2.20
2018-12-11T19:40:23.751Z,2.20
2018-12-11T19:42:53.410Z,2.20
2018-12-11T19:45:22.919Z,2.10
2018-12-11T19:47:52.722Z,2.10
2018-12-11T19:50:23.031Z,2.20
2018-12-11T19:52:52.600Z,2.10
2018-12-11T19:55:22.013Z,2.20
2018-12-11T19:57:51.538Z,2.20
2018-12-11T20:00:21.588Z,2.20
2018-12-11T20:02:51.309Z,2.10
2018-12-11T20:05:22.198Z,2.20
2018-12-11T20:07:51.828Z,2.20
2018-12-11T20:10:26.452Z,2.20
2018-12-11T20:12:56.321Z,2.20
2018-12-11T20:15:25.853Z,2.20
2018-12-11T20:17:55.453Z,2.20
2018-12-11T20:20:27.147Z,2.10
2018-12-11T20:22:58.341Z,2.10
2018-12-11T20:25:27.769Z,2.10
2018-12-11T20:27:57.762Z,2.10
2018-12-11T20:30:28.604Z,2.10
2018-12-11T20:32:58.053Z,2.10
2018-12-11T20:35:27.656Z,2.10
2018-12-11T20:37:57.238Z,2.20
2018-12-11T20:40:26.739Z,2.10
2018-12-11T20:42:56.360Z,2.10
2018-12-11T20:45:26.135Z,2.10
2018-12-11T20:47:56.051Z,2.00
2018-12-11T20:50:26.131Z,2.00
2018-12-11T20:52:56.026Z,2.00
2018-12-11T20:55:25.605Z,2.00
2018-12-11T20:57:55.408Z,2.00
2018-12-11T21:00:24.748Z,2.00
2018-12-11T21:02:54.398Z,2.00
2018-12-11T21:05:24.537Z,2.00
2018-12-11T21:07:54.447Z,2.00
2018-12-11T21:10:24.288Z,2.00
2018-12-11T21:12:54.034Z,2.00
2018-12-11T21:15:23.794Z,2.00
2018-12-11T21:17:53.535Z,2.00
2018-12-11T21:20:23.135Z,2.00
2018-12-11T21:22:52.839Z,2.00
2018-12-11T21:25:23.503Z,2.00
2018-12-11T21:27:53.277Z,1.90
2018-12-11T21:30:22.980Z,2.00
2018-12-11T21:32:52.886Z,2.00
2018-12-11T21:35:22.589Z,1.90
2018-12-11T21:37:52.612Z,1.90
2018-12-11T21:40:22.419Z,1.90
2018-12-11T21:42:52.342Z,1.90
2018-12-11T21:45:22.437Z,1.90
2018-12-11T21:47:52.065Z,1.90
2018-12-11T21:50:21.861Z,1.90
2018-12-11T21:52:52.643Z,1.90
2018-12-11T21:55:22.372Z,2.00
2018-12-11T21:57:51.942Z,1.90
2018-12-11T22:00:21.545Z,1.90
2018-12-11T22:02:51.232Z,1.90
2018-12-11T22:05:21.148Z,1.90
2018-12-11T22:07:50.925Z,1.90
2018-12-11T22:10:20.372Z,2.00
2018-12-11T22:12:50.171Z,1.90
2018-12-11T22:15:19.728Z,1.90
2018-12-11T22:17:49.187Z,1.90
2018-12-11T22:20:18.643Z,1.90
2018-12-11T22:22:48.289Z,1.90
2018-12-11T22:25:17.898Z,1.80
2018-12-11T22:27:47.654Z,1.80
2018-12-11T22:30:17.244Z,1.90
2018-12-11T22:32:47.271Z,1.90
2018-12-11T22:35:16.917Z,1.90
2018-12-11T22:37:46.482Z,1.90
2018-12-11T22:40:16.260Z,1.90
2018-12-11T22:42:46.418Z,1.90
2018-12-11T22:45:16.008Z,1.90
2018-12-11T22:47:46.061Z,1.90
2018-12-11T22:50:15.349Z,1.90
2018-12-11T22:52:44.687Z,1.90
2018-12-11T22:55:14.433Z,1.90
2018-12-11T22:57:44.147Z,1.90
2018-12-11T23:00:13.929Z,1.90
2018-12-11T23:02:45.378Z,1.90
2018-12-11T23:05:14.699Z,1.90
2018-12-11T23:07:44.293Z,1.90
2018-12-11T23:10:13.948Z,1.90
2018-12-11T23:12:43.642Z,1.90
2018-12-11T23:15:13.168Z,1.90
2018-12-11T23:17:42.746Z,1.90
2018-12-11T23:20:12.785Z,1.90
2018-12-11T23:22:42.389Z,1.90
2018-12-11T23:25:12.027Z,1.90
2018-12-11T23:27:41.530Z,1.90
2018-12-11T23:30:12.636Z,1.90
2018-12-11T23:32:42.172Z,1.90
2018-12-11T23:35:11.820Z,1.90
2018-12-11T23:37:41.626Z,2.00
2018-12-11T23:40:11.024Z,2.00
2018-12-11T23:42:40.627Z,2.00
2018-12-11T23:45:10.129Z,1.90
2018-12-11T23:47:40.349Z,2.00
2018-12-11T23:50:10.071Z,2.00
2018-12-11T23:52:39.669Z,2.00
2018-12-11T23:55:09.240Z,1.90
2018-12-11T23:57:38.941Z,2.00
